Time;durP1;ratioP1;P1;durP2;ratioP2;P2;SDS_P1;SDS_P2;PMS_P1;PMS_P2;Temp;Humidity;BMP_temperature;BMP_pressure;BME280_temperature;BME280_humidity;BME280_pressure;Samples;Min_cycle;Max_cycle;Signal;HPM_P1;HPM_P2
2023/10/18 00:01:10;;;;;;;5.20;3.53;;;;;;;;;;10293734;28;20072;-65
2023/10/18 00:06:15;;;;;;;6.90;3.10;;;;;;;;;;10291864;28;20505;-64
2023/10/18 00:11:15;;;;;;;2.75;2.25;;;;;;;;;;10289060;28;20068;-65
2023/10/18 00:16:14;;;;;;;3.90;2.13;;;;;;;;;;10287722;28;20080;-64
2023/10/18 00:21:13;;;;;;;7.55;3.55;;;;;;;;;;10292486;28;20073;-65
2023/10/18 00:26:12;;;;;;;6.53;3.22;;;;;;;;;;10291657;28;20068;-65
2023/10/18 00:31:16;;;;;;;6.20;3.30;;;;;;;;;;10300624;28;20521;-65
2023/10/18 00:36:16;;;;;;;5.53;3.67;;;;;;;;;;10286415;28;20075;-65
2023/10/18 00:41:16;;;;;;;6.85;3.78;;;;;;;;;;10291677;28;20490;-65
2023/10/18 00:46:16;;;;;;;6.78;3.55;;;;;;;;;;10287622;28;20072;-65
2023/10/18 00:51:16;;;;;;;4.82;3.50;;;;;;;;;;10294247;28;20076;-65
2023/10/18 00:56:15;;;;;;;7.38;2.95;;;;;;;;;;10292036;28;20041;-65
2023/10/18 01:01:14;;;;;;;7.03;2.20;;;;;;;;;;10292225;28;20508;-63
2023/10/18 01:06:17;;;;;;;2.80;1.88;;;;;;;;;;10292491;28;20068;-65
2023/10/18 01:11:23;;;;;;;1.95;1.60;;;;;;;;;;10270167;28;20071;-64
2023/10/18 01:16:21;;;;;;;5.50;2.07;;;;;;;;;;10290157;28;20080;-64
2023/10/18 01:21:22;;;;;;;3.45;2.08;;;;;;;;;;10290357;28;20076;-63
2023/10/18 01:26:22;;;;;;;2.10;1.63;;;;;;;;;;10288221;28;20076;-64
2023/10/18 01:31:20;;;;;;;3.85;1.67;;;;;;;;;;10286951;28;20071;-64
2023/10/18 01:36:20;;;;;;;6.22;1.67;;;;;;;;;;10288263;28;20080;-64
2023/10/18 01:41:27;;;;;;;2.08;1.67;;;;;;;;;;10285826;28;20076;-64
2023/10/18 01:46:27;;;;;;;1.70;1.60;;;;;;;;;;10287400;28;20064;-64
2023/10/18 01:51:26;;;;;;;3.42;1.52;;;;;;;;;;10286663;28;20076;-64
2023/10/18 01:56:25;;;;;;;4.32;1.50;;;;;;;;;;10286124;28;20060;-64
2023/10/18 02:01:25;;;;;;;2.72;1.90;;;;;;;;;;10283116;28;20528;-64
2023/10/18 02:06:23;;;;;;;1.63;1.52;;;;;;;;;;10291925;28;20493;-64
2023/10/18 02:11:24;;;;;;;3.47;1.60;;;;;;;;;;10285778;28;20076;-64
2023/10/18 02:16:24;;;;;;;2.30;1.98;;;;;;;;;;10285711;28;20088;-64
2023/10/18 02:21:25;;;;;;;2.47;1.77;;;;;;;;;;10293496;28;20072;-64
2023/10/18 02:26:31;;;;;;;2.97;1.90;;;;;;;;;;10286529;28;20071;-64
2023/10/18 02:31:30;;;;;;;3.63;1.85;;;;;;;;;;10288319;28;20151;-64
2023/10/18 02:36:38;;;;;;;3.65;2.08;;;;;;;;;;10294327;28;20080;-65
2023/10/18 02:41:37;;;;;;;2.38;1.90;;;;;;;;;;10286653;28;20497;-65
2023/10/18 02:46:36;;;;;;;4.97;2.30;;;;;;;;;;10287157;28;20092;-64
2023/10/18 02:51:36;;;;;;;2.58;1.85;;;;;;;;;;10286751;28;20455;-65
2023/10/18 02:56:37;;;;;;;4.32;2.00;;;;;;;;;;10279930;28;20052;-64
2023/10/18 03:01:36;;;;;;;2.55;1.80;;;;;;;;;;10286889;28;20069;-64
2023/10/18 03:06:37;;;;;;;2.20;1.98;;;;;;;;;;10291835;28;20533;-65
2023/10/18 03:11:39;;;;;;;3.47;2.22;;;;;;;;;;10282921;28;20083;-65
2023/10/18 03:16:41;;;;;;;3.58;1.90;;;;;;;;;;10274556;28;20084;-64
2023/10/18 03:21:46;;;;;;;5.93;2.90;;;;;;;;;;10284840;28;20068;-65
2023/10/18 03:26:45;;;;;;;5.90;2.58;;;;;;;;;;10284457;28;20081;-64
2023/10/18 03:31:44;;;;;;;4.00;2.60;;;;;;;;;;10282363;28;20082;-64
2023/10/18 03:36:51;;;;;;;9.23;3.33;;;;;;;;;;10283463;28;20068;-65
2023/10/18 03:41:50;;;;;;;9.95;3.08;;;;;;;;;;10284301;28;20098;-64
2023/10/18 03:46:49;;;;;;;3.97;2.65;;;;;;;;;;10287297;28;20069;-65
2023/10/18 03:51:49;;;;;;;5.45;3.72;;;;;;;;;;10294419;28;20068;-65
2023/10/18 03:56:51;;;;;;;3.55;2.92;;;;;;;;;;10299100;28;20083;-65
2023/10/18 04:07:13;;;;;;;6.07;3.85;;;;;;;;;;10286685;28;20080;-65
2023/10/18 04:12:17;;;;;;;9.68;4.63;;;;;;;;;;10288985;28;20305;-64
2023/10/18 04:17:19;;;;;;;8.68;4.00;;;;;;;;;;10290847;28;20087;-64
2023/10/18 04:22:19;;;;;;;7.05;3.95;;;;;;;;;;10286439;28;20080;-65
2023/10/18 04:27:19;;;;;;;10.45;3.83;;;;;;;;;;10287466;28;20091;-63
2023/10/18 04:32:23;;;;;;;11.55;4.50;;;;;;;;;;10290356;28;20569;-64
2023/10/18 04:37:23;;;;;;;12.10;3.85;;;;;;;;;;10288993;28;20175;-64
2023/10/18 04:42:24;;;;;;;14.30;4.68;;;;;;;;;;10280837;28;20069;-64
2023/10/18 04:47:31;;;;;;;9.65;4.57;;;;;;;;;;10289169;28;20110;-64
2023/10/18 04:52:41;;;;;;;12.63;8.32;;;;;;;;;;10284019;28;20521;-67
2023/10/18 04:57:40;;;;;;;11.95;7.05;;;;;;;;;;10290342;28;20479;-64
2023/10/18 05:02:39;;;;;;;11.63;6.25;;;;;;;;;;10274807;28;20475;-63
2023/10/18 05:07:42;;;;;;;12.52;5.60;;;;;;;;;;10273917;28;20076;-63
2023/10/18 05:12:47;;;;;;;9.80;5.07;;;;;;;;;;10290008;28;20072;-63
2023/10/18 05:17:47;;;;;;;13.10;5.85;;;;;;;;;;10290879;28;20195;-63
2023/10/18 05:22:50;;;;;;;11.02;5.35;;;;;;;;;;10282017;28;20522;-63
2023/10/18 05:27:59;;;;;;;17.30;6.45;;;;;;;;;;10280716;28;20076;-64
2023/10/18 05:33:04;;;;;;;8.77;5.90;;;;;;;;;;10288973;28;20068;-64
2023/10/18 05:38:19;;;;;;;19.05;11.52;;;;;;;;;;10290573;28;20497;-65
2023/10/18 05:43:29;;;;;;;18.00;9.88;;;;;;;;;;10272637;28;20475;-63
2023/10/18 05:48:31;;;;;;;24.73;10.55;;;;;;;;;;10284228;28;20072;-64
2023/10/18 05:53:31;;;;;;;16.65;8.52;;;;;;;;;;10283993;28;20072;-64
2023/10/18 05:58:32;;;;;;;15.02;8.68;;;;;;;;;;10279206;28;20060;-64
2023/10/18 06:03:39;;;;;;;13.48;7.70;;;;;;;;;;10277942;28;20076;-64
2023/10/18 06:08:39;;;;;;;11.68;6.43;;;;;;;;;;10280342;28;20068;-64
2023/10/18 06:13:37;;;;;;;8.02;4.78;;;;;;;;;;10267976;28;20545;-64
2023/10/18 06:18:37;;;;;;;10.25;5.53;;;;;;;;;;10282719;28;20061;-64
2023/10/18 06:23:38;;;;;;;16.08;13.13;;;;;;;;;;10277539;28;20072;-64
2023/10/18 06:28:38;;;;;;;22.88;13.80;;;;;;;;;;10285995;28;20079;-63
2023/10/18 06:33:36;;;;;;;16.85;11.15;;;;;;;;;;10278680;28;20068;-64
2023/10/18 06:38:34;;;;;;;18.42;11.43;;;;;;;;;;10269720;28;20061;-64
2023/10/18 06:43:33;;;;;;;31.63;13.63;;;;;;;;;;10282292;28;20087;-64
2023/10/18 06:48:33;;;;;;;20.70;13.25;;;;;;;;;;10267680;28;20491;-64
2023/10/18 06:53:32;;;;;;;18.67;9.82;;;;;;;;;;10271273;28;20068;-64
2023/10/18 06:58:42;;;;;;;16.88;8.32;;;;;;;;;;10274306;28;20791;-64
2023/10/18 07:03:42;;;;;;;20.23;12.45;;;;;;;;;;10261862;28;20072;-64
2023/10/18 07:08:44;;;;;;;18.35;9.52;;;;;;;;;;10262959;28;20598;-63
2023/10/18 07:13:46;;;;;;;14.38;8.23;;;;;;;;;;10274725;28;20087;-64
2023/10/18 07:18:46;;;;;;;13.27;7.15;;;;;;;;;;10266125;28;20526;-64
2023/10/18 07:23:46;;;;;;;25.05;13.07;;;;;;;;;;10271439;28;20461;-63
2023/10/18 07:28:44;;;;;;;32.75;9.40;;;;;;;;;;10277680;28;20506;-64
2023/10/18 07:33:42;;;;;;;25.40;10.73;;;;;;;;;;10281213;28;20538;-65
2023/10/18 07:38:48;;;;;;;12.43;8.45;;;;;;;;;;10287386;28;20565;-65
2023/10/18 07:43:47;;;;;;;11.73;7.40;;;;;;;;;;10288127;28;20083;-65
2023/10/18 07:48:52;;;;;;;16.30;6.90;;;;;;;;;;10292566;28;20095;-65
2023/10/18 07:53:54;;;;;;;16.00;6.45;;;;;;;;;;10289704;28;20099;-64
2023/10/18 07:58:53;;;;;;;16.05;8.13;;;;;;;;;;10278192;28;20094;-64
2023/10/18 08:03:52;;;;;;;20.20;8.57;;;;;;;;;;10272504;28;20068;-65
2023/10/18 08:08:55;;;;;;;16.70;9.32;;;;;;;;;;10259166;28;20133;-64
2023/10/18 08:13:54;;;;;;;17.63;7.68;;;;;;;;;;10259459;28;20132;-64
2023/10/18 08:18:57;;;;;;;15.13;6.55;;;;;;;;;;10260811;28;20068;-64
2023/10/18 08:23:57;;;;;;;18.80;8.60;;;;;;;;;;10265418;28;20123;-63
2023/10/18 08:28:55;;;;;;;18.60;7.95;;;;;;;;;;10277001;28;21123;-64
2023/10/18 08:33:56;;;;;;;15.70;7.57;;;;;;;;;;10288202;28;20064;-64
2023/10/18 08:38:54;;;;;;;16.00;8.25;;;;;;;;;;10292088;28;20076;-65
2023/10/18 08:43:58;;;;;;;20.20;8.30;;;;;;;;;;10293037;28;20068;-65
2023/10/18 08:48:57;;;;;;;17.42;8.52;;;;;;;;;;10293392;28;20064;-65
2023/10/18 08:54:00;;;;;;;19.70;7.53;;;;;;;;;;10291718;28;20069;-64
2023/10/18 08:59:00;;;;;;;13.95;7.22;;;;;;;;;;10291967;28;20064;-63
2023/10/18 09:04:01;;;;;;;13.55;6.15;;;;;;;;;;10289464;28;20072;-64
2023/10/18 09:09:07;;;;;;;9.02;4.70;;;;;;;;;;10293394;28;20090;-66
2023/10/18 09:14:08;;;;;;;15.35;5.75;;;;;;;;;;10289732;28;20091;-64
2023/10/18 09:19:08;;;;;;;9.77;5.13;;;;;;;;;;10290610;28;20116;-64
2023/10/18 09:24:09;;;;;;;10.82;5.35;;;;;;;;;;10291946;28;20537;-65
2023/10/18 09:29:10;;;;;;;13.48;4.75;;;;;;;;;;10293077;28;20073;-64
2023/10/18 09:34:09;;;;;;;14.32;5.38;;;;;;;;;;10287953;28;20065;-65
2023/10/18 09:39:09;;;;;;;9.27;6.07;;;;;;;;;;10297355;28;20155;-65
2023/10/18 09:44:09;;;;;;;9.07;4.78;;;;;;;;;;10278582;28;20083;-65
2023/10/18 09:49:20;;;;;;;13.98;6.47;;;;;;;;;;10289313;28;20079;-64
2023/10/18 09:54:21;;;;;;;8.73;4.10;;;;;;;;;;10287048;28;20076;-65
2023/10/18 09:59:27;;;;;;;8.63;4.95;;;;;;;;;;10278079;28;20061;-63
2023/10/18 10:04:32;;;;;;;13.07;4.80;;;;;;;;;;10286886;28;20068;-64
2023/10/18 10:09:33;;;;;;;6.22;3.53;;;;;;;;;;10288701;28;20076;-65
2023/10/18 10:14:35;;;;;;;8.32;4.35;;;;;;;;;;10277307;28;20489;-65
2023/10/18 10:19:37;;;;;;;10.57;4.82;;;;;;;;;;10284982;28;20072;-65
2023/10/18 10:24:42;;;;;;;16.95;5.43;;;;;;;;;;10285957;28;20083;-64
2023/10/18 10:29:56;;;;;;;8.57;4.20;;;;;;;;;;10274361;28;20163;-64
2023/10/18 10:35:10;;;;;;;6.07;4.07;;;;;;;;;;10282914;28;20064;-65
2023/10/18 10:40:19;;;;;;;10.50;4.00;;;;;;;;;;10281133;28;20075;-64
2023/10/18 10:45:41;;;;;;;7.30;4.28;;;;;;;;;;10267427;28;20079;-65
2023/10/18 10:50:42;;;;;;;11.07;4.32;;;;;;;;;;10274649;28;20072;-64
2023/10/18 10:55:43;;;;;;;9.27;3.70;;;;;;;;;;10272484;28;20076;-66
2023/10/18 11:01:02;;;;;;;5.03;3.65;;;;;;;;;;10276167;28;20087;-64
2023/10/18 11:06:05;;;;;;;5.15;3.45;;;;;;;;;;10285704;28;20071;-64
2023/10/18 11:11:06;;;;;;;7.78;3.72;;;;;;;;;;10292562;28;20080;-64
2023/10/18 11:16:07;;;;;;;5.28;3.22;;;;;;;;;;10282218;28;20091;-64
2023/10/18 11:21:18;;;;;;;12.43;7.72;;;;;;;;;;10286673;28;20080;-64
2023/10/18 11:26:23;;;;;;;11.30;6.22;;;;;;;;;;10289913;28;20076;-65
2023/10/18 11:31:26;;;;;;;11.73;6.43;;;;;;;;;;10291681;28;20069;-64
2023/10/18 11:36:28;;;;;;;4.78;3.47;;;;;;;;;;10292840;28;20076;-65
2023/10/18 11:41:26;;;;;;;7.80;3.10;;;;;;;;;;10293308;28;20076;-65
2023/10/18 11:46:26;;;;;;;8.60;3.15;;;;;;;;;;10286073;28;20084;-64
2023/10/18 11:51:27;;;;;;;6.53;2.80;;;;;;;;;;10293017;28;20069;-65
2023/10/18 11:56:35;;;;;;;6.47;3.83;;;;;;;;;;10292951;28;20532;-65
2023/10/18 12:01:34;;;;;;;5.47;3.47;;;;;;;;;;10293822;28;20065;-65
2023/10/18 12:06:34;;;;;;;8.82;3.65;;;;;;;;;;10290580;28;20072;-64
2023/10/18 12:11:33;;;;;;;7.68;3.72;;;;;;;;;;10286816;28;20470;-64
2023/10/18 12:16:32;;;;;;;7.07;3.30;;;;;;;;;;10288439;28;20088;-65
2023/10/18 12:21:30;;;;;;;8.98;2.67;;;;;;;;;;10291742;28;20097;-65
2023/10/18 12:26:34;;;;;;;5.30;3.58;;;;;;;;;;10292462;28;20071;-65
2023/10/18 12:31:38;;;;;;;8.38;5.03;;;;;;;;;;10288243;28;20073;-65
2023/10/18 12:36:39;;;;;;;13.02;3.40;;;;;;;;;;10289819;28;20068;-64
2023/10/18 12:41:40;;;;;;;9.40;4.55;;;;;;;;;;10291469;28;20110;-64
2023/10/18 12:46:41;;;;;;;6.38;3.65;;;;;;;;;;10291758;28;20309;-64
2023/10/18 12:51:42;;;;;;;7.00;3.65;;;;;;;;;;10268268;28;20610;-64
2023/10/18 12:56:54;;;;;;;5.78;3.60;;;;;;;;;;10274274;28;20083;-65
2023/10/18 13:01:58;;;;;;;10.45;4.22;;;;;;;;;;10285925;28;20079;-65
2023/10/18 13:07:09;;;;;;;5.88;3.40;;;;;;;;;;10287276;28;20080;-65
2023/10/18 13:12:16;;;;;;;7.32;3.00;;;;;;;;;;10287435;28;20076;-66
2023/10/18 13:17:16;;;;;;;5.88;3.30;;;;;;;;;;10285286;28;20478;-64
2023/10/18 13:22:18;;;;;;;6.78;3.20;;;;;;;;;;10287429;28;20077;-65
2023/10/18 13:27:27;;;;;;;6.40;3.83;;;;;;;;;;10275960;28;20076;-65
2023/10/18 13:32:25;;;;;;;12.85;4.00;;;;;;;;;;10284528;28;20087;-64
2023/10/18 13:37:24;;;;;;;17.25;4.60;;;;;;;;;;10278159;28;20064;-65
2023/10/18 13:42:24;;;;;;;8.25;3.60;;;;;;;;;;10285884;28;20084;-64
2023/10/18 13:47:26;;;;;;;13.25;4.25;;;;;;;;;;10273063;28;20080;-64
2023/10/18 13:52:25;;;;;;;5.88;3.55;;;;;;;;;;10281351;28;20068;-66
2023/10/18 13:57:26;;;;;;;12.93;3.95;;;;;;;;;;10283370;28;20071;-66
2023/10/18 14:02:26;;;;;;;6.68;3.63;;;;;;;;;;10284043;28;20072;-65
2023/10/18 14:07:24;;;;;;;5.22;3.60;;;;;;;;;;10288749;28;20130;-65
2023/10/18 14:12:24;;;;;;;5.28;3.45;;;;;;;;;;10285603;28;20072;-66
2023/10/18 14:17:24;;;;;;;8.48;3.58;;;;;;;;;;10283485;28;20104;-65
2023/10/18 14:22:24;;;;;;;10.13;3.25;;;;;;;;;;10287493;28;20075;-66
2023/10/18 14:27:23;;;;;;;4.45;2.67;;;;;;;;;;10287382;28;20080;-66
2023/10/18 14:32:23;;;;;;;6.38;3.55;;;;;;;;;;10283247;28;20099;-66
2023/10/18 14:37:23;;;;;;;7.78;4.03;;;;;;;;;;10286544;28;20143;-66
2023/10/18 14:42:22;;;;;;;10.38;5.28;;;;;;;;;;10286752;28;20143;-66
2023/10/18 14:47:20;;;;;;;11.50;5.07;;;;;;;;;;10286179;28;20546;-66
2023/10/18 14:52:19;;;;;;;8.02;4.63;;;;;;;;;;10286440;28;20072;-65
2023/10/18 14:57:20;;;;;;;6.50;4.05;;;;;;;;;;10285697;28;20083;-66
2023/10/18 15:02:19;;;;;;;7.40;3.83;;;;;;;;;;10286697;28;20083;-66
2023/10/18 15:07:17;;;;;;;9.45;4.10;;;;;;;;;;10283869;28;20079;-66
2023/10/18 15:12:17;;;;;;;11.00;4.20;;;;;;;;;;10281662;28;20087;-65
2023/10/18 15:17:17;;;;;;;18.17;6.28;;;;;;;;;;10286790;28;20082;-66
2023/10/18 15:22:15;;;;;;;16.58;8.50;;;;;;;;;;10287375;28;20416;-65
2023/10/18 15:27:15;;;;;;;25.40;13.75;;;;;;;;;;10286182;28;20070;-65
2023/10/18 15:32:14;;;;;;;19.17;11.43;;;;;;;;;;10282918;28;20498;-66
2023/10/18 15:37:14;;;;;;;18.90;8.07;;;;;;;;;;10285309;28;20072;-66
2023/10/18 15:42:12;;;;;;;12.05;5.93;;;;;;;;;;10285484;28;20063;-66
2023/10/18 15:47:10;;;;;;;10.23;5.45;;;;;;;;;;10286471;28;20088;-64
2023/10/18 15:52:09;;;;;;;10.65;5.72;;;;;;;;;;10290405;28;20084;-64
2023/10/18 15:57:10;;;;;;;24.88;5.15;;;;;;;;;;10284159;28;20076;-65
2023/10/18 16:02:12;;;;;;;13.32;4.53;;;;;;;;;;10289142;28;20114;-66
2023/10/18 16:07:10;;;;;;;11.95;4.05;;;;;;;;;;10290049;28;20072;-64
2023/10/18 16:12:10;;;;;;;8.45;4.30;;;;;;;;;;10278225;28;20080;-64
2023/10/18 16:17:08;;;;;;;7.65;3.42;;;;;;;;;;10280381;28;20092;-64
2023/10/18 16:22:07;;;;;;;10.63;3.78;;;;;;;;;;10281488;28;20503;-66
2023/10/18 16:27:05;;;;;;;7.15;4.75;;;;;;;;;;10287917;28;20079;-64
2023/10/18 16:32:05;;;;;;;10.00;7.20;;;;;;;;;;10286212;28;20077;-64
2023/10/18 16:37:03;;;;;;;9.55;4.45;;;;;;;;;;10290385;28;20535;-65
2023/10/18 16:42:04;;;;;;;9.85;4.65;;;;;;;;;;10285735;28;20069;-64
2023/10/18 16:47:02;;;;;;;4.97;3.20;;;;;;;;;;10288719;28;20506;-65
2023/10/18 16:52:02;;;;;;;8.15;3.80;;;;;;;;;;10282145;28;20071;-65
2023/10/18 16:57:00;;;;;;;6.85;3.67;;;;;;;;;;10289351;28;20076;-64
2023/10/18 17:01:58;;;;;;;11.38;5.20;;;;;;;;;;10292020;28;20068;-65
2023/10/18 17:06:57;;;;;;;7.28;4.55;;;;;;;;;;10281848;28;20069;-65
2023/10/18 17:11:57;;;;;;;5.35;3.28;;;;;;;;;;10287593;28;20086;-65
2023/10/18 17:16:55;;;;;;;3.70;3.10;;;;;;;;;;10286052;28;20089;-64
2023/10/18 17:21:54;;;;;;;5.75;3.90;;;;;;;;;;10289214;28;20071;-64
2023/10/18 17:26:52;;;;;;;4.95;3.45;;;;;;;;;;10279954;28;20064;-66
2023/10/18 17:31:51;;;;;;;3.65;3.08;;;;;;;;;;10283339;28;20083;-64
2023/10/18 17:36:50;;;;;;;6.35;4.05;;;;;;;;;;10287151;28;20068;-64
2023/10/18 17:41:49;;;;;;;7.03;3.60;;;;;;;;;;10292267;28;20076;-65
2023/10/18 17:46:52;;;;;;;4.65;2.92;;;;;;;;;;10294190;28;20071;-65
2023/10/18 17:51:51;;;;;;;3.72;3.03;;;;;;;;;;10290359;28;20079;-66
2023/10/18 17:56:50;;;;;;;5.22;3.53;;;;;;;;;;10283011;28;20489;-67
2023/10/18 18:01:51;;;;;;;6.05;4.07;;;;;;;;;;10281911;28;20076;-65
2023/10/18 18:06:52;;;;;;;10.15;3.78;;;;;;;;;;10283038;28;20067;-66
2023/10/18 18:11:51;;;;;;;6.07;3.60;;;;;;;;;;10286781;28;20083;-66
2023/10/18 18:16:49;;;;;;;5.10;3.63;;;;;;;;;;10283973;28;20080;-66
2023/10/18 18:21:48;;;;;;;6.22;3.72;;;;;;;;;;10278612;28;20064;-67
2023/10/18 18:26:50;;;;;;;6.50;4.00;;;;;;;;;;10268939;28;20498;-66
2023/10/18 18:31:49;;;;;;;9.25;5.85;;;;;;;;;;10285364;28;20510;-65
2023/10/18 18:36:47;;;;;;;11.20;7.15;;;;;;;;;;10287210;28;20068;-67
2023/10/18 18:41:48;;;;;;;9.52;5.75;;;;;;;;;;10287360;28;20103;-65
2023/10/18 18:46:48;;;;;;;7.05;4.80;;;;;;;;;;10279150;28;20597;-66
2023/10/18 18:51:46;;;;;;;7.03;4.95;;;;;;;;;;10285665;28;20077;-65
2023/10/18 18:56:44;;;;;;;4.38;3.28;;;;;;;;;;10283152;28;20469;-65
2023/10/18 19:01:43;;;;;;;9.20;7.25;;;;;;;;;;10266419;28;20071;-66
2023/10/18 19:06:42;;;;;;;5.55;4.30;;;;;;;;;;10285861;28;20068;-66
2023/10/18 19:11:42;;;;;;;6.57;3.25;;;;;;;;;;10281871;28;20084;-65
2023/10/18 19:16:40;;;;;;;4.72;3.00;;;;;;;;;;10270600;28;20090;-65
2023/10/18 19:21:39;;;;;;;4.88;3.25;;;;;;;;;;10282190;28;20485;-65
2023/10/18 19:26:39;;;;;;;7.60;3.58;;;;;;;;;;10295680;28;20087;-65
2023/10/18 19:31:37;;;;;;;8.38;2.95;;;;;;;;;;10291319;28;20084;-65
2023/10/18 19:36:36;;;;;;;4.75;2.88;;;;;;;;;;10298888;28;20072;-65
2023/10/18 19:41:34;;;;;;;5.00;3.30;;;;;;;;;;10296544;28;20072;-65
2023/10/18 19:46:34;;;;;;;7.03;2.65;;;;;;;;;;10293843;28;20067;-65
2023/10/18 19:51:33;;;;;;;3.70;2.40;;;;;;;;;;10292173;28;20079;-66
2023/10/18 19:56:31;;;;;;;4.63;2.83;;;;;;;;;;10292112;28;20079;-65
2023/10/18 20:01:30;;;;;;;4.18;2.50;;;;;;;;;;10292679;28;20075;-66
2023/10/18 20:06:30;;;;;;;5.47;2.88;;;;;;;;;;10296590;28;20060;-65
2023/10/18 20:11:29;;;;;;;4.97;4.45;;;;;;;;;;10279923;28;20076;-66
2023/10/18 20:16:27;;;;;;;6.43;2.70;;;;;;;;;;10296644;28;20098;-65
2023/10/18 20:21:25;;;;;;;4.55;2.70;;;;;;;;;;10297056;28;20079;-66
2023/10/18 20:26:25;;;;;;;4.85;3.83;;;;;;;;;;10294648;28;20079;-66
2023/10/18 20:31:24;;;;;;;4.57;2.88;;;;;;;;;;10292419;28;20092;-66
2023/10/18 20:36:23;;;;;;;5.70;2.55;;;;;;;;;;10294109;28;20099;-66
2023/10/18 20:41:21;;;;;;;5.03;2.67;;;;;;;;;;10295176;28;20443;-66
2023/10/18 20:46:21;;;;;;;4.97;3.08;;;;;;;;;;10294202;28;20071;-66
2023/10/18 20:51:19;;;;;;;5.97;2.35;;;;;;;;;;10292901;28;20088;-66
2023/10/18 20:56:18;;;;;;;8.75;2.50;;;;;;;;;;10294111;28;20068;-66
2023/10/18 21:01:20;;;;;;;8.13;3.55;;;;;;;;;;10289417;28;20092;-66
2023/10/18 21:06:23;;;;;;;4.78;3.72;;;;;;;;;;10290725;28;20056;-66
2023/10/18 21:11:21;;;;;;;8.05;3.35;;;;;;;;;;10295572;28;20117;-66
2023/10/18 21:16:19;;;;;;;4.43;2.78;;;;;;;;;;10292625;28;20072;-66
2023/10/18 21:21:19;;;;;;;6.75;2.80;;;;;;;;;;10292948;28;20076;-65
2023/10/18 21:26:19;;;;;;;5.82;3.60;;;;;;;;;;10294259;28;20068;-65
2023/10/18 21:31:17;;;;;;;7.38;2.95;;;;;;;;;;10286970;28;20076;-67
2023/10/18 21:36:19;;;;;;;8.60;2.75;;;;;;;;;;10290677;28;20067;-65
2023/10/18 21:41:20;;;;;;;5.47;2.70;;;;;;;;;;10292227;28;20057;-65
2023/10/18 21:46:18;;;;;;;4.22;3.42;;;;;;;;;;10278492;28;20053;-65
2023/10/18 21:51:17;;;;;;;8.27;3.10;;;;;;;;;;10290198;28;20084;-65
2023/10/18 21:56:15;;;;;;;4.88;3.08;;;;;;;;;;10292691;28;20060;-66
2023/10/18 22:06:33;;;;;;;4.93;3.08;;;;;;;;;;10288825;28;20557;-65
2023/10/18 22:11:33;;;;;;;4.45;2.60;;;;;;;;;;10292038;28;20076;-66
2023/10/18 22:16:35;;;;;;;8.75;2.22;;;;;;;;;;10291870;28;20084;-68
2023/10/18 22:21:36;;;;;;;5.93;2.47;;;;;;;;;;10290713;28;20098;-66
2023/10/18 22:26:38;;;;;;;5.85;2.50;;;;;;;;;;10292232;28;20068;-66
2023/10/18 22:31:38;;;;;;;2.92;2.55;;;;;;;;;;10291683;28;20088;-66
2023/10/18 22:36:38;;;;;;;4.93;2.88;;;;;;;;;;10290624;28;20568;-66
2023/10/18 22:41:38;;;;;;;5.13;2.65;;;;;;;;;;10289233;28;20068;-66
2023/10/18 22:46:47;;;;;;;4.93;2.30;;;;;;;;;;10289447;28;20079;-67
2023/10/18 22:51:47;;;;;;;6.55;2.53;;;;;;;;;;10290623;28;20075;-67
2023/10/18 22:56:53;;;;;;;5.90;2.30;;;;;;;;;;10289557;28;20068;-65
2023/10/18 23:01:54;;;;;;;2.88;2.58;;;;;;;;;;10290731;28;20691;-66
2023/10/18 23:06:55;;;;;;;3.38;2.45;;;;;;;;;;10291680;28;20076;-66
2023/10/18 23:11:57;;;;;;;2.97;2.00;;;;;;;;;;10288852;28;20072;-65
2023/10/18 23:17:11;;;;;;;3.90;2.53;;;;;;;;;;10290826;28;20470;-66
2023/10/18 23:22:22;;;;;;;3.10;2.00;;;;;;;;;;10290013;28;20963;-66
2023/10/18 23:32:52;;;;;;;;;;;;;;;;;;10290102;28;20479;-66
2023/10/18 23:37:55;;;;;;;8.10;2.38;;;;;;;;;;10289362;28;19967;-66
2023/10/18 23:43:09;;;;;;;3.60;2.85;;;;;;;;;;10287174;28;20076;-65
2023/10/18 23:53:24;;;;;;;;;;;;;;;;;;10290386;28;20072;-66
2023/10/18 23:58:28;;;;;;;2.80;2.05;;;;;;;;;;10289629;28;19963;-66
